createdAt,value
2023-02-27T00:01:15.713Z,99650.38
2023-02-27T00:06:20.650Z,99647.41
2023-02-27T00:11:27.901Z,99642.88
2023-02-27T00:16:36.957Z,99647.03
2023-02-27T00:21:44.649Z,99637.91
2023-02-27T00:26:49.745Z,99636.59
2023-02-27T00:32:00.052Z,99641.09
2023-02-27T00:37:05.860Z,99645.84
2023-02-27T00:42:11.252Z,99641.63
2023-02-27T00:47:19.579Z,99647.47
2023-02-27T00:52:24.626Z,99652.75
2023-02-27T00:57:31.620Z,99645.28
2023-02-27T01:02:39.328Z,99652.72
2023-02-27T01:07:46.003Z,99651.16
2023-02-27T01:12:52.386Z,99653.44
2023-02-27T01:18:00.136Z,99646.06
2023-02-27T01:23:07.252Z,99654.50
2023-02-27T01:28:17.932Z,99647.13
2023-02-27T01:33:25.494Z,99649.72
2023-02-27T01:38:30.387Z,99645.44
2023-02-27T01:43:35.475Z,99650.66
2023-02-27T01:48:45.327Z,99649.84
2023-02-27T01:53:53.874Z,99654.25
2023-02-27T01:59:03.386Z,99661.97
2023-02-27T02:04:18.719Z,99659.19
2023-02-27T02:09:25.400Z,99665.94
2023-02-27T02:14:30.578Z,99666.84
2023-02-27T02:20:10.758Z,99662.25
2023-02-27T02:25:57.031Z,99674.38
2023-02-27T02:31:38.877Z,99673.53
2023-02-27T02:37:26.423Z,99676.34
2023-02-27T02:42:39.980Z,99688.06
2023-02-27T02:47:57.503Z,99678.06
2023-02-27T02:53:09.273Z,99689.16
2023-02-27T02:58:24.605Z,99683.97
2023-02-27T03:03:35.375Z,99694.63
2023-02-27T03:08:47.668Z,99693.72
2023-02-27T03:14:00.071Z,99696.59
2023-02-27T03:19:13.387Z,99699.63
2023-02-27T03:24:26.435Z,99708.06
2023-02-27T03:29:43.703Z,99706.19
2023-02-27T03:34:51.814Z,99704.84
2023-02-27T03:40:04.978Z,99713.69
2023-02-27T03:45:21.625Z,99712.69
2023-02-27T03:50:29.956Z,99718.59
2023-02-27T03:55:42.049Z,99713.63
2023-02-27T04:00:50.210Z,99721.56
2023-02-27T04:05:56.618Z,99717.44
2023-02-27T04:11:33.720Z,99699.81
2023-02-27T04:17:03.637Z,99711.16
2023-02-27T04:22:23.242Z,99707.38
2023-02-27T04:27:37.458Z,99716.47
2023-02-27T04:32:52.590Z,99725.59
2023-02-27T04:38:04.321Z,99726.66
2023-02-27T04:43:15.424Z,99733.00
2023-02-27T04:48:27.467Z,99737.75
2023-02-27T04:53:41.416Z,99768.72
2023-02-27T04:58:52.792Z,99773.13
2023-02-27T05:04:03.747Z,99764.38
2023-02-27T05:09:16.776Z,99768.44
2023-02-27T05:14:25.865Z,99765.16
2023-02-27T05:19:34.117Z,99763.09
2023-02-27T05:24:50.514Z,99768.91
2023-02-27T05:29:59.355Z,99768.16
2023-02-27T05:35:14.201Z,99773.34
2023-02-27T05:40:23.120Z,99775.03
2023-02-27T05:45:35.088Z,99775.03
2023-02-27T05:50:44.571Z,99785.81
2023-02-27T05:55:52.188Z,99787.38
2023-02-27T06:01:03.758Z,99795.53
2023-02-27T06:06:16.669Z,99804.16
2023-02-27T06:11:23.443Z,99800.88
2023-02-27T06:16:28.796Z,99817.75
2023-02-27T06:21:38.628Z,99815.56
2023-02-27T06:26:43.862Z,99825.28
2023-02-27T06:31:48.882Z,99837.31
2023-02-27T06:36:56.890Z,99835.50
2023-02-27T06:42:06.170Z,99835.97
2023-02-27T06:47:12.961Z,99828.78
2023-02-27T06:52:21.442Z,99834.88
2023-02-27T06:57:26.389Z,99833.03
2023-02-27T07:02:31.507Z,99839.09
2023-02-27T07:07:43.393Z,99827.28
2023-02-27T07:12:50.265Z,99827.94
2023-02-27T07:17:59.558Z,99826.44
2023-02-27T07:23:08.886Z,99838.59
2023-02-27T07:28:14.078Z,99837.69
2023-02-27T07:33:19.216Z,99833.00
2023-02-27T07:38:33.351Z,99834.88
2023-02-27T07:43:38.721Z,99839.06
2023-02-27T07:48:44.372Z,99834.13
2023-02-27T07:53:51.970Z,99831.88
2023-02-27T07:59:03.432Z,99850.41
2023-02-27T08:04:08.765Z,99841.97
2023-02-27T08:09:16.643Z,99846.00
2023-02-27T08:14:22.685Z,99855.00
2023-02-27T08:19:27.965Z,99856.19
2023-02-27T08:24:44.830Z,99858.97
2023-02-27T08:29:49.846Z,99859.41
2023-02-27T08:34:56.341Z,99862.84
2023-02-27T08:40:15.383Z,99869.53
2023-02-27T08:45:22.147Z,99865.88
2023-02-27T08:50:29.804Z,99871.50
2023-02-27T08:55:38.170Z,99871.00
2023-02-27T09:00:44.289Z,99861.63
2023-02-27T09:05:51.954Z,99876.63
2023-02-27T09:11:03.171Z,99881.75
2023-02-27T09:16:20.829Z,99894.34
2023-02-27T09:21:27.879Z,99884.25
2023-02-27T09:26:45.176Z,99891.97
2023-02-27T09:37:28.276Z,99893.44
2023-02-27T09:42:45.489Z,99899.63
2023-02-27T09:47:54.231Z,99903.44
2023-02-27T09:52:59.491Z,99898.44
2023-02-27T09:58:14.010Z,99908.53
2023-02-27T10:03:37.427Z,99904.69
2023-02-27T10:08:51.961Z,99902.34
2023-02-27T10:14:08.645Z,99908.22
2023-02-27T10:19:20.101Z,99910.09
2023-02-27T10:24:29.839Z,99907.03
2023-02-27T10:29:39.928Z,99910.38
2023-02-27T10:34:48.395Z,99919.28
2023-02-27T10:40:00.378Z,99923.59
2023-02-27T10:45:16.510Z,99917.81
2023-02-27T10:50:52.187Z,99921.81
2023-02-27T10:56:05.932Z,99904.88
2023-02-27T11:01:18.667Z,99914.50
2023-02-27T11:06:36.425Z,99914.53
2023-02-27T11:11:41.477Z,99909.09
2023-02-27T11:16:55.844Z,99909.97
2023-02-27T11:22:08.376Z,99900.38
2023-02-27T11:27:26.659Z,99893.34
2023-02-27T11:32:44.291Z,99892.06
2023-02-27T11:37:52.789Z,99893.22
2023-02-27T11:43:01.298Z,99886.59
2023-02-27T11:48:25.656Z,99877.31
2023-02-27T11:54:09.589Z,99881.19
2023-02-27T11:59:28.918Z,99882.34
2023-02-27T12:04:46.213Z,99871.97
2023-02-27T12:10:01.993Z,99869.03
2023-02-27T12:15:20.377Z,99868.94
2023-02-27T12:20:38.979Z,99865.06
2023-02-27T12:25:54.926Z,99872.41
2023-02-27T12:31:10.380Z,99871.84
2023-02-27T12:36:18.650Z,99876.22
2023-02-27T12:41:42.388Z,99876.22
2023-02-27T12:46:55.536Z,99877.69
2023-02-27T12:52:17.254Z,99875.34
2023-02-27T12:57:34.605Z,99873.88
2023-02-27T13:03:03.260Z,99873.31
2023-02-27T13:08:38.475Z,99871.03
2023-02-27T13:13:50.750Z,99870.91
2023-02-27T13:19:01.364Z,99874.56
2023-02-27T13:24:24.149Z,99869.09
2023-02-27T13:29:37.590Z,99872.28
2023-02-27T13:34:46.828Z,99858.31
2023-02-27T13:40:38.881Z,99870.63
2023-02-27T13:46:03.896Z,99872.94
2023-02-27T13:51:13.946Z,99879.13
2023-02-27T13:56:26.349Z,99874.47
2023-02-27T14:01:37.065Z,99879.31
2023-02-27T14:06:48.282Z,99869.03
2023-02-27T14:12:00.003Z,99880.06
2023-02-27T14:17:08.402Z,99885.03
2023-02-27T14:22:44.957Z,99884.69
2023-02-27T14:28:07.620Z,99888.81
2023-02-27T14:33:39.476Z,99893.00
2023-02-27T14:38:45.698Z,99896.88
2023-02-27T14:43:58.258Z,99900.09
2023-02-27T14:49:05.660Z,99894.47
2023-02-27T14:54:17.185Z,99914.56
2023-02-27T14:59:30.105Z,99923.19
2023-02-27T15:04:36.416Z,99936.38
2023-02-27T15:09:44.911Z,99938.38
2023-02-27T15:14:54.995Z,99939.88
2023-02-27T15:20:02.455Z,99937.09
2023-02-27T15:25:08.531Z,99939.03
2023-02-27T15:30:27.327Z,99928.38
2023-02-27T15:35:39.378Z,99930.63
2023-02-27T15:40:44.743Z,99931.22
2023-02-27T15:45:55.199Z,99931.69
2023-02-27T15:51:08.828Z,99926.25
2023-02-27T15:56:17.345Z,99940.06
2023-02-27T16:01:27.599Z,99950.66
2023-02-27T16:06:37.099Z,99948.19
2023-02-27T16:11:42.380Z,99954.38
2023-02-27T16:16:57.221Z,99960.25
2023-02-27T16:22:14.867Z,99962.00
2023-02-27T16:27:22.695Z,99972.84
2023-02-27T16:32:33.715Z,99974.50
2023-02-27T16:37:43.227Z,99972.16
2023-02-27T16:42:50.200Z,99976.22
2023-02-27T16:47:59.820Z,99987.53
2023-02-27T16:53:04.753Z,99983.59
2023-02-27T16:58:16.803Z,99998.88
2023-02-27T17:03:25.777Z,99990.69
2023-02-27T17:08:30.744Z,99998.78
2023-02-27T17:13:38.999Z,100008.03
2023-02-27T17:18:48.964Z,100007.25
2023-02-27T17:23:54.020Z,100003.41
2023-02-27T17:28:58.902Z,100008.09
2023-02-27T17:34:08.957Z,100010.25
2023-02-27T17:39:18.434Z,100018.69
2023-02-27T17:44:24.123Z,100010.72
2023-02-27T17:49:31.643Z,100024.31
2023-02-27T17:54:36.709Z,100018.81
2023-02-27T17:59:43.464Z,100021.28
2023-02-27T18:04:53.443Z,100026.50
2023-02-27T18:09:58.438Z,100032.78
2023-02-27T18:15:06.905Z,100026.75
2023-02-27T18:20:19.921Z,100032.03
2023-02-27T18:25:28.531Z,100019.31
2023-02-27T18:30:37.230Z,100032.59
2023-02-27T18:35:45.338Z,100039.91
2023-02-27T18:40:50.327Z,100038.66
2023-02-27T18:45:56.117Z,100036.47
2023-02-27T18:51:12.440Z,100043.50
2023-02-27T18:56:22.989Z,100036.50
2023-02-27T19:01:29.943Z,100035.50
2023-02-27T19:06:41.049Z,100043.91
2023-02-27T19:11:47.303Z,100047.59
2023-02-27T19:16:52.438Z,100042.78
2023-02-27T19:22:00.477Z,100048.59
2023-02-27T19:27:05.727Z,100050.03
2023-02-27T19:32:11.140Z,100056.66
2023-02-27T19:37:19.118Z,100051.63
2023-02-27T19:42:27.401Z,100053.66
2023-02-27T19:47:32.911Z,100058.91
2023-02-27T19:52:41.060Z,100058.28
2023-02-27T19:57:48.528Z,100061.72
2023-02-27T20:02:53.771Z,100068.97
2023-02-27T20:08:06.831Z,100071.78
2023-02-27T20:13:14.722Z,100069.94
2023-02-27T20:18:20.341Z,100073.16
2023-02-27T20:23:28.394Z,100075.78
2023-02-27T20:28:33.492Z,100071.97
2023-02-27T20:33:38.952Z,100080.63
2023-02-27T20:38:47.088Z,100070.97
2023-02-27T20:43:52.848Z,100069.16
2023-02-27T20:49:00.463Z,100070.16
2023-02-27T20:54:10.451Z,100073.38
2023-02-27T20:59:17.465Z,100068.97
2023-02-27T21:04:25.853Z,100075.78
2023-02-27T21:09:33.714Z,100072.56
2023-02-27T21:14:39.421Z,100075.78
2023-02-27T21:19:44.702Z,100074.41
2023-02-27T21:24:53.812Z,100086.25
2023-02-27T21:30:00.591Z,100075.38
2023-02-27T21:35:05.625Z,100082.44
2023-02-27T21:40:15.181Z,100083.84
2023-02-27T21:45:20.146Z,100088.44
2023-02-27T21:50:25.082Z,100083.38
2023-02-27T21:55:32.961Z,100083.59
2023-02-27T22:00:37.852Z,100090.22
2023-02-27T22:05:43.604Z,100090.22
2023-02-27T22:10:51.403Z,100082.63
2023-02-27T22:15:56.930Z,100089.44
2023-02-27T22:21:02.169Z,100101.75
2023-02-27T22:26:11.444Z,100094.69
2023-02-27T22:31:18.673Z,100101.13
2023-02-27T22:36:29.202Z,100091.53
2023-02-27T22:41:38.592Z,100096.53
2023-02-27T22:46:45.473Z,100101.56
2023-02-27T22:51:52.110Z,100099.53
2023-02-27T22:56:59.912Z,100102.16
2023-02-27T23:02:06.305Z,100098.69
2023-02-27T23:07:11.258Z,100088.44
2023-02-27T23:12:18.804Z,100094.69
2023-02-27T23:17:23.983Z,100101.91
2023-02-27T23:22:33.639Z,100093.91
2023-02-27T23:27:41.164Z,100092.09
2023-02-27T23:32:46.239Z,100104.19
2023-02-27T23:37:51.183Z,100105.59
2023-02-27T23:43:12.547Z,100103.56
2023-02-27T23:48:17.625Z,100105.59
2023-02-27T23:53:22.572Z,100105.97
2023-02-27T23:58:30.085Z,100107.59
